Time;durP1;ratioP1;P1;durP2;ratioP2;P2;SDS_P1;SDS_P2;PMS_P1;PMS_P2;Temp;Humidity;BMP_temperature;BMP_pressure;BME280_temperature;BME280_humidity;BME280_pressure;Samples;Min_cycle;Max_cycle;Signal;HPM_P1;HPM_P2
2023/12/30 00:02:29;;;;;;;8.20;5.07;;;;;;;-11.41;77.87;100927.66;5045975;28;20457;-66
2023/12/30 00:05:00;;;;;;;8.32;5.30;;;;;;;-11.36;77.37;100932.28;5036242;28;20094;-65
2023/12/30 00:07:31;;;;;;;7.70;5.13;;;;;;;-11.32;76.58;100933.44;5050312;28;20044;-65
2023/12/30 00:10:01;;;;;;;14.02;5.63;;;;;;;-11.29;76.25;100943.78;5030536;28;20122;-65
2023/12/30 00:12:33;;;;;;;9.43;5.30;;;;;;;-11.21;76.03;100931.78;5045726;28;20050;-66
2023/12/30 00:15:04;;;;;;;9.90;4.38;;;;;;;-11.15;75.31;100949.97;5062449;28;20159;-67
2023/12/30 00:17:36;;;;;;;11.70;5.15;;;;;;;-11.04;75.04;100946.63;5056287;28;20557;-67
2023/12/30 00:20:08;;;;;;;12.55;4.95;;;;;;;-11.01;73.84;100951.94;5066580;28;20058;-66
2023/12/30 00:22:38;;;;;;;10.55;5.38;;;;;;;-10.96;73.71;100958.22;5055247;28;20135;-66
2023/12/30 00:25:10;;;;;;;8.48;4.80;;;;;;;-10.89;73.61;100952.91;5065503;28;20052;-66
2023/12/30 00:27:42;;;;;;;9.20;5.20;;;;;;;-10.89;73.58;100952.91;5053591;28;20048;-67
2023/12/30 00:30:14;;;;;;;8.43;4.55;;;;;;;-10.80;72.61;100962.00;5064818;28;20481;-66
2023/12/30 00:32:45;;;;;;;10.43;5.05;;;;;;;-10.72;72.28;100968.53;5034360;28;20052;-66
2023/12/30 00:35:15;;;;;;;8.10;4.28;;;;;;;-10.70;70.93;100975.47;5025529;28;20060;-67
2023/12/30 00:37:46;;;;;;;8.38;4.57;;;;;;;-10.68;70.27;100968.03;5015956;28;20082;-67
2023/12/30 00:40:16;;;;;;;6.63;4.75;;;;;;;-10.51;70.38;100982.84;5025193;28;20110;-68
2023/12/30 00:42:57;;;;;;;10.32;4.43;;;;;;;-10.79;70.50;100908.22;5015008;28;20048;-68
2023/12/30 00:45:27;;;;;;;8.00;4.90;;;;;;;-10.32;69.76;100976.72;5025287;28;20045;-68
2023/12/30 00:47:58;;;;;;;9.88;5.20;;;;;;;-10.26;69.40;100984.72;5015210;28;20045;-68
2023/12/30 00:50:30;;;;;;;7.18;3.78;;;;;;;-10.27;68.09;100998.16;5025193;28;20128;-66
2023/12/30 00:53:00;;;;;;;12.20;5.53;;;;;;;-10.25;68.04;100989.03;5049574;28;20043;-67
2023/12/30 00:55:31;;;;;;;7.95;4.63;;;;;;;-10.22;66.43;100986.75;5064077;28;20075;-68
2023/12/30 00:58:03;;;;;;;6.07;4.13;;;;;;;-10.10;66.66;100992.75;5054136;28;20071;-67
2023/12/30 01:00:42;;;;;;;6.70;4.00;;;;;;;-10.02;65.12;100991.69;5065273;28;20059;-65
2023/12/30 01:03:13;;;;;;;8.50;4.28;;;;;;;-10.00;64.82;100995.22;5057228;28;20056;-68
2023/12/30 01:05:44;;;;;;;8.68;4.65;;;;;;;-9.91;65.39;100999.22;5046741;28;20052;-68
2023/12/30 01:08:14;;;;;;;5.20;3.78;;;;;;;-9.83;64.19;100998.19;5059079;28;20741;-69
2023/12/30 01:10:45;;;;;;;7.97;4.55;;;;;;;-9.80;63.61;101008.53;5048652;28;20056;-68
2023/12/30 01:13:17;;;;;;;6.78;3.63;;;;;;;-9.83;63.16;100999.06;5059852;28;20851;-68
2023/12/30 01:15:48;;;;;;;6.93;3.95;;;;;;;-9.78;64.03;100986.78;5049442;28;20102;-67
2023/12/30 01:18:18;;;;;;;8.80;3.95;;;;;;;-9.70;63.08;101000.88;5056376;28;20044;-69
2023/12/30 01:20:49;;;;;;;4.50;3.47;;;;;;;-9.72;62.32;101007.47;5049693;28;20469;-69
2023/12/30 01:23:19;;;;;;;4.38;3.22;;;;;;;-9.68;62.25;101004.41;5059776;28;20489;-67
2023/12/30 01:25:50;;;;;;;6.05;3.72;;;;;;;-9.75;62.07;101007.22;5049548;28;20071;-68
2023/12/30 01:28:22;;;;;;;7.05;3.83;;;;;;;-9.68;62.39;100999.34;5056373;28;20484;-66
2023/12/30 01:30:53;;;;;;;7.32;4.22;;;;;;;-9.55;62.91;100991.91;5051586;28;20048;-67
2023/12/30 01:33:24;;;;;;;6.10;4.20;;;;;;;-9.45;61.92;100996.00;5058629;28;20139;-66
2023/12/30 01:35:55;;;;;;;8.68;4.45;;;;;;;-9.49;61.99;100990.59;5046115;28;20053;-67
2023/12/30 01:38:26;;;;;;;7.63;3.90;;;;;;;-9.38;62.67;100994.84;5059883;28;20617;-66
2023/12/30 01:40:56;;;;;;;7.28;3.88;;;;;;;-9.21;62.47;100999.50;5049874;28;20860;-66
2023/12/30 01:43:30;;;;;;;7.63;3.67;;;;;;;-9.22;61.17;101002.78;5059318;28;20044;-66
2023/12/30 01:46:06;;;;;;;6.78;3.53;;;;;;;-9.17;61.29;101001.47;5046545;28;20048;-68
2023/12/30 01:48:37;;;;;;;6.25;3.80;;;;;;;-9.28;60.23;100988.78;5046068;28;20997;-67
2023/12/30 01:51:08;;;;;;;5.50;3.85;;;;;;;-9.31;60.95;100997.03;5059604;28;20048;-67
2023/12/30 01:53:57;;;;;;;5.38;3.30;;;;;;;-9.66;61.18;100947.22;5049199;28;20064;-68
2023/12/30 01:56:29;;;;;;;4.72;3.40;;;;;;;-9.49;60.15;100995.66;5055965;28;20872;-67
2023/12/30 01:59:01;;;;;;;9.43;4.20;;;;;;;-9.53;61.00;101001.25;5048152;28;20063;-68
2023/12/30 02:01:31;;;;;;;3.70;3.20;;;;;;;-9.41;61.48;100995.50;5054253;28;20201;-67
2023/12/30 02:04:02;;;;;;;4.93;3.20;;;;;;;-9.48;60.62;100992.34;5040181;28;20059;-67
2023/12/30 02:06:32;;;;;;;5.28;3.28;;;;;;;-9.50;61.39;100993.91;5055203;28;20490;-67
2023/12/30 02:09:03;;;;;;;6.93;3.58;;;;;;;-9.38;60.74;100989.78;5048053;28;20055;-66
2023/12/30 02:11:34;;;;;;;5.45;3.95;;;;;;;-9.38;60.26;100984.72;5058251;28;20937;-67
2023/12/30 02:14:06;;;;;;;4.80;3.50;;;;;;;-9.28;60.53;100997.28;5059657;28;20069;-66
2023/12/30 02:16:36;;;;;;;7.32;3.63;;;;;;;-9.16;60.58;100993.13;5045899;28;20146;-66
2023/12/30 02:19:07;;;;;;;6.43;3.55;;;;;;;-9.18;60.81;100989.59;5049837;28;20052;-67
2023/12/30 02:21:37;;;;;;;7.75;3.30;;;;;;;-9.25;60.64;100987.38;5035710;28;20072;-64
2023/12/30 02:24:09;;;;;;;7.13;3.80;;;;;;;-9.17;60.91;100993.00;5045747;28;20879;-65
2023/12/30 02:26:40;;;;;;;8.27;4.00;;;;;;;-9.04;61.23;100987.19;5034511;28;20429;-66
2023/12/30 02:29:11;;;;;;;8.63;3.83;;;;;;;-8.97;61.10;100985.22;5048712;28;20785;-67
2023/12/30 02:31:47;;;;;;;5.53;3.72;;;;;;;-8.88;60.71;100985.03;5039787;28;20443;-68
2023/12/30 02:34:18;;;;;;;6.95;3.97;;;;;;;-8.95;60.58;100990.41;5024135;28;20539;-67
2023/12/30 02:36:49;;;;;;;5.68;3.45;;;;;;;-8.95;59.97;100998.00;5013811;28;20380;-67
2023/12/30 02:39:21;;;;;;;6.82;3.28;;;;;;;-9.01;59.51;101002.59;5036702;28;20059;-64
2023/12/30 02:41:52;;;;;;;7.05;3.75;;;;;;;-9.03;59.92;101002.50;5030666;28;20101;-64
2023/12/30 02:44:23;;;;;;;3.95;2.97;;;;;;;-9.10;59.88;101001.94;5043508;28;20131;-67
2023/12/30 02:46:53;;;;;;;6.63;4.63;;;;;;;-9.08;60.39;101000.38;5028891;28;20057;-65
2023/12/30 02:49:24;;;;;;;3.53;2.83;;;;;;;-9.01;60.03;101005.13;5039919;28;20052;-66
2023/12/30 02:51:54;;;;;;;5.07;3.00;;;;;;;-8.93;60.55;101006.59;5023986;28;20104;-64
2023/12/30 02:54:26;;;;;;;6.05;3.17;;;;;;;-8.92;60.68;101010.88;5042646;28;20053;-66
2023/12/30 02:56:57;;;;;;;5.78;3.20;;;;;;;-8.96;60.01;101011.41;5033088;28;20052;-65
2023/12/30 02:59:27;;;;;;;6.43;3.83;;;;;;;-8.92;60.33;101013.41;5042863;28;20056;-68
2023/12/30 03:01:58;;;;;;;5.80;3.72;;;;;;;-8.94;59.66;100999.75;5030670;28;20049;-65
2023/12/30 03:04:29;;;;;;;5.78;4.05;;;;;;;-8.98;60.01;101002.84;5038648;28;20064;-68
2023/12/30 03:06:59;;;;;;;7.18;4.00;;;;;;;-8.85;60.42;101010.56;5026840;28;20542;-66
2023/12/30 03:09:31;;;;;;;5.70;3.53;;;;;;;-8.75;60.33;101005.38;5029806;28;20072;-66
2023/12/30 03:12:02;;;;;;;4.88;3.22;;;;;;;-8.77;59.15;101008.59;5013354;28;20076;-65
2023/12/30 03:14:32;;;;;;;7.30;3.38;;;;;;;-8.88;59.50;101000.22;5035788;28;20485;-65
2023/12/30 03:17:03;;;;;;;6.68;3.67;;;;;;;-8.95;59.33;100998.00;5019942;28;20049;-67
2023/12/30 03:19:33;;;;;;;4.90;3.50;;;;;;;-8.85;59.61;101008.03;5024007;28;20099;-66
2023/12/30 03:22:05;;;;;;;6.15;4.00;;;;;;;-8.83;60.16;100998.91;5027603;28;20041;-65
2023/12/30 03:24:37;;;;;;;6.85;4.00;;;;;;;-8.87;60.21;101001.97;5017957;28;20053;-66
2023/12/30 03:27:08;;;;;;;6.90;4.78;;;;;;;-8.81;60.69;101017.63;5026958;28;20049;-65
2023/12/30 03:29:38;;;;;;;5.93;3.60;;;;;;;-8.71;60.81;101020.06;5017123;28;20053;-67
2023/12/30 03:32:08;;;;;;;6.07;3.88;;;;;;;-8.67;60.74;101026.22;5031840;28;20477;-68
2023/12/30 03:34:40;;;;;;;7.93;3.45;;;;;;;-8.58;60.87;101033.63;5037758;28;20052;-67
2023/12/30 03:37:11;;;;;;;5.88;4.10;;;;;;;-8.52;60.72;101032.38;5047178;28;20080;-68
2023/12/30 03:39:43;;;;;;;6.00;3.40;;;;;;;-8.38;60.66;101035.00;5037315;28;20056;-67
2023/12/30 03:42:13;;;;;;;6.18;3.97;;;;;;;-8.35;60.84;101046.22;5047008;28;20048;-68
2023/12/30 03:44:44;;;;;;;5.57;3.22;;;;;;;-8.35;60.19;101055.50;5037536;28;20772;-66
2023/12/30 03:47:14;;;;;;;6.38;3.55;;;;;;;-8.44;59.86;101055.75;5046766;28;20528;-67
2023/12/30 03:49:44;;;;;;;8.52;3.85;;;;;;;-8.47;59.91;101063.13;5037896;28;20098;-67
2023/12/30 03:52:15;;;;;;;5.63;3.25;;;;;;;-8.49;59.91;101062.13;5046198;28;20131;-67
2023/12/30 03:54:47;;;;;;;6.90;3.75;;;;;;;-8.54;60.55;101054.19;5036847;28;20056;-66
2023/12/30 03:57:17;;;;;;;5.20;3.35;;;;;;;-8.55;59.84;101056.63;5047051;28;20055;-66
2023/12/30 03:59:48;;;;;;;8.10;4.57;;;;;;;-8.54;59.58;101053.31;5036749;28;20053;-67
2023/12/30 04:02:21;;;;;;;8.45;3.85;;;;;;;-8.28;59.80;101062.78;5046623;28;20106;-65
2023/12/30 04:04:51;;;;;;;7.90;3.97;;;;;;;-8.12;59.58;101064.75;5037260;28;20475;-66
2023/12/30 04:07:22;;;;;;;6.63;3.38;;;;;;;-7.97;59.15;101081.03;5037421;28;20072;-68
2023/12/30 04:09:54;;;;;;;5.00;3.42;;;;;;;-7.97;58.67;101080.16;5016678;28;20060;-66
2023/12/30 04:12:24;;;;;;;5.32;3.33;;;;;;;-7.90;58.09;101088.31;5026504;28;20064;-65
2023/12/30 04:14:55;;;;;;;6.75;3.40;;;;;;;-7.82;57.75;101087.19;5031758;28;20056;-65
2023/12/30 04:17:25;;;;;;;5.70;3.15;;;;;;;-7.66;57.62;101098.41;5059234;28;20055;-66
2023/12/30 04:19:56;;;;;;;5.72;3.10;;;;;;;-7.91;57.24;101091.63;5055994;28;20153;-66
2023/12/30 04:22:28;;;;;;;5.88;3.17;;;;;;;-8.10;57.05;101101.25;5065672;28;20398;-67
2023/12/30 04:25:00;;;;;;;5.10;3.20;;;;;;;-8.08;57.39;101103.13;5054671;28;20052;-67
2023/12/30 04:27:30;;;;;;;6.25;2.92;;;;;;;-8.02;57.74;101102.66;5065323;28;20570;-63
2023/12/30 04:30:01;;;;;;;5.45;3.40;;;;;;;-8.07;57.52;101101.44;5053954;28;20048;-68
2023/12/30 04:32:31;;;;;;;4.60;3.20;;;;;;;-8.13;57.12;101099.38;5064910;28;20048;-66
2023/12/30 04:35:03;;;;;;;5.57;3.58;;;;;;;-8.18;57.36;101099.81;5054694;28;20052;-66
2023/12/30 04:37:33;;;;;;;5.60;2.80;;;;;;;-8.08;57.78;101107.31;5064866;28;20077;-65
2023/12/30 04:40:06;;;;;;;6.78;4.13;;;;;;;-8.04;57.74;101111.81;5065131;28;20055;-67
2023/12/30 04:42:37;;;;;;;4.80;3.25;;;;;;;-8.00;58.24;101111.25;5054851;28;20059;-67
2023/12/30 04:45:12;;;;;;;5.07;3.20;;;;;;;-7.92;58.36;101107.59;5064901;28;20048;-64
2023/12/30 04:47:43;;;;;;;5.90;3.22;;;;;;;-7.92;57.49;101110.16;5053573;28;20098;-66
2023/12/30 04:50:13;;;;;;;8.73;3.50;;;;;;;-8.05;57.06;101105.84;5064851;28;20507;-66
2023/12/30 04:52:44;;;;;;;5.20;3.10;;;;;;;-8.14;57.08;101104.31;5055075;28;20056;-66
2023/12/30 04:55:16;;;;;;;7.22;3.17;;;;;;;-8.20;56.89;101099.69;5064781;28;20100;-65
2023/12/30 04:57:47;;;;;;;6.53;3.25;;;;;;;-8.27;56.83;101105.97;5047398;28;20056;-67
2023/12/30 05:00:19;;;;;;;7.93;3.33;;;;;;;-8.35;57.05;101102.00;5056771;28;20482;-65
2023/12/30 05:02:52;;;;;;;5.82;3.58;;;;;;;-8.45;57.25;101094.53;5047122;28;20555;-66
2023/12/30 05:05:22;;;;;;;6.05;3.45;;;;;;;-8.51;57.82;101083.94;5039757;28;20067;-66
2023/12/30 05:07:53;;;;;;;5.70;3.30;;;;;;;-8.41;57.64;101101.59;5030350;28;20063;-67
2023/12/30 05:10:25;;;;;;;6.30;3.38;;;;;;;-8.53;57.34;101101.59;5035620;28;20454;-69
2023/12/30 05:12:55;;;;;;;7.45;3.95;;;;;;;-8.58;57.83;101102.03;5028924;28;20655;-66
2023/12/30 05:15:26;;;;;;;5.97;3.20;;;;;;;-8.59;57.89;101100.25;5039454;28;20536;-67
2023/12/30 05:17:56;;;;;;;6.15;3.20;;;;;;;-8.59;57.76;101101.13;5013117;28;20144;-65
2023/12/30 05:20:27;;;;;;;6.07;3.78;;;;;;;-8.65;57.48;101105.75;5020465;28;20481;-68
2023/12/30 05:23:01;;;;;;;6.55;3.35;;;;;;;-8.68;57.41;101111.47;5011171;28;20060;-66
2023/12/30 05:25:33;;;;;;;4.30;2.92;;;;;;;-8.61;58.09;101114.44;5019912;28;20106;-68
2023/12/30 05:28:04;;;;;;;4.85;3.25;;;;;;;-8.58;58.05;101117.22;5006135;28;20044;-65
2023/12/30 05:30:35;;;;;;;6.28;2.97;;;;;;;-8.62;57.82;101117.75;5013188;28;20045;-68
2023/12/30 05:33:06;;;;;;;6.20;3.47;;;;;;;-8.69;58.16;101109.69;5020259;28;20049;-66
2023/12/30 05:35:38;;;;;;;5.18;3.03;;;;;;;-8.65;58.09;101125.16;5010052;28;20044;-66
2023/12/30 05:38:12;;;;;;;7.43;3.38;;;;;;;-8.73;58.11;101117.84;5015950;28;20076;-64
2023/12/30 05:40:44;;;;;;;6.45;3.80;;;;;;;-9.00;56.77;101121.72;5010176;28;20084;-66
2023/12/30 05:43:14;;;;;;;6.65;3.35;;;;;;;-9.13;56.82;101130.06;5019072;28;20440;-65
2023/12/30 05:45:45;;;;;;;5.38;3.00;;;;;;;-9.17;57.89;101117.91;5009646;28;20049;-67
2023/12/30 05:48:15;;;;;;;7.15;3.25;;;;;;;-9.26;57.14;101127.38;5017660;28;20057;-65
2023/12/30 05:50:46;;;;;;;5.40;3.17;;;;;;;-9.34;57.10;101129.28;5009330;28;20112;-67
2023/12/30 05:53:16;;;;;;;5.15;3.10;;;;;;;-9.44;57.02;101120.88;5019381;28;20602;-66
2023/12/30 05:55:48;;;;;;;5.63;3.33;;;;;;;-9.46;58.12;101133.44;5010112;28;20135;-68
2023/12/30 05:58:19;;;;;;;5.30;3.40;;;;;;;-9.47;58.40;101141.75;5019635;28;20049;-67
2023/12/30 06:00:50;;;;;;;6.95;3.22;;;;;;;-9.45;58.63;101144.44;5009176;28;20424;-67
2023/12/30 06:03:20;;;;;;;4.60;2.90;;;;;;;-9.46;58.58;101147.69;5019647;28;20048;-67
2023/12/30 06:05:51;;;;;;;5.93;3.05;;;;;;;-9.52;58.29;101153.19;5009942;28;20060;-65
2023/12/30 06:08:22;;;;;;;4.68;3.17;;;;;;;-9.57;58.43;101155.34;5019626;28;20114;-66
2023/12/30 06:10:54;;;;;;;6.97;3.33;;;;;;;-9.58;58.42;101163.72;5009770;28;20073;-67
2023/12/30 06:13:25;;;;;;;7.28;3.60;;;;;;;-9.62;58.09;101166.75;5018918;28;20049;-65
2023/12/30 06:15:57;;;;;;;6.13;3.15;;;;;;;-9.70;57.94;101177.94;5010211;28;20565;-66
2023/12/30 06:18:30;;;;;;;7.72;3.90;;;;;;;-9.81;58.28;101168.59;5055674;28;20111;-66
2023/12/30 06:21:03;;;;;;;4.53;2.88;;;;;;;-10.19;58.44;101120.91;5047796;28;20044;-66
2023/12/30 06:23:33;;;;;;;5.35;3.08;;;;;;;-9.94;58.47;101178.50;5056951;28;20086;-66
2023/12/30 06:26:06;;;;;;;4.78;3.08;;;;;;;-9.98;58.88;101180.78;5059243;28;20051;-66
2023/12/30 06:28:36;;;;;;;5.40;3.33;;;;;;;-10.06;58.69;101175.88;5048407;28;20051;-66
2023/12/30 06:31:07;;;;;;;6.43;3.10;;;;;;;-10.07;59.09;101190.16;5058908;28;20062;-68
2023/12/30 06:33:37;;;;;;;5.05;3.20;;;;;;;-10.13;59.51;101194.72;5047816;28;20117;-65
2023/12/30 06:36:09;;;;;;;5.38;3.20;;;;;;;-10.17;59.77;101192.69;5058005;28;20405;-62
2023/12/30 06:38:39;;;;;;;5.57;3.53;;;;;;;-10.24;60.06;101201.41;5048287;28;20093;-66
2023/12/30 06:41:11;;;;;;;7.88;4.07;;;;;;;-10.26;60.86;101202.06;5058008;28;20071;-66
2023/12/30 06:43:42;;;;;;;8.40;4.45;;;;;;;-10.31;61.53;101204.22;5048730;28;20104;-64
2023/12/30 06:46:12;;;;;;;12.55;5.60;;;;;;;-10.62;60.86;101215.13;5054815;28;20435;-66
2023/12/30 06:48:43;;;;;;;11.50;5.18;;;;;;;-11.00;60.92;101216.19;5047763;28;20062;-65
2023/12/30 06:51:13;;;;;;;9.50;4.93;;;;;;;-11.41;61.00;101218.59;5058590;28;20051;-66
2023/12/30 06:53:44;;;;;;;6.00;3.92;;;;;;;-12.11;61.40;101225.06;5045661;28;20816;-63
2023/12/30 06:56:16;;;;;;;6.82;3.78;;;;;;;-12.47;62.98;101226.06;5061438;28;20182;-65
2023/12/30 06:58:46;;;;;;;6.80;3.67;;;;;;;-12.81;63.96;101225.50;5050696;28;20048;-66
2023/12/30 07:01:17;;;;;;;7.63;4.40;;;;;;;-13.12;65.84;101232.75;5059051;28;20087;-65
2023/12/30 07:03:47;;;;;;;103.55;39.50;;;;;;;-13.54;67.62;101234.66;5051715;28;20151;-66
2023/12/30 07:06:18;;;;;;;107.45;42.67;;;;;;;-13.83;69.57;101244.44;5061637;28;20048;-66
2023/12/30 07:08:48;;;;;;;146.65;74.05;;;;;;;-13.92;70.47;101241.97;5047835;28;20751;-65
2023/12/30 07:11:20;;;;;;;68.75;31.13;;;;;;;-14.02;71.20;101247.72;5059075;28;20059;-65
2023/12/30 07:13:51;;;;;;;22.10;11.55;;;;;;;-14.27;72.09;101243.56;5052358;28;20060;-66
2023/12/30 07:16:21;;;;;;;14.38;8.90;;;;;;;-14.39;73.57;101239.13;5058088;28;20063;-66
2023/12/30 07:18:52;;;;;;;12.07;7.13;;;;;;;-14.38;75.14;101245.91;5032047;28;20041;-66
2023/12/30 07:21:22;;;;;;;9.77;5.97;;;;;;;-14.43;76.35;101251.22;5042112;28;20695;-66
2023/12/30 07:23:53;;;;;;;10.63;6.30;;;;;;;-14.37;76.92;101252.72;5031601;28;20040;-66
2023/12/30 07:26:25;;;;;;;11.82;7.43;;;;;;;-14.30;77.36;101258.31;5042475;28;20060;-66
2023/12/30 07:28:56;;;;;;;10.73;5.95;;;;;;;-14.29;77.32;101252.56;5033405;28;20134;-66
2023/12/30 07:31:27;;;;;;;6.82;5.20;;;;;;;-14.28;77.02;101261.88;5042860;28;20549;-66
2023/12/30 07:33:58;;;;;;;9.27;5.05;;;;;;;-14.34;76.68;101253.00;5031809;28;20820;-66
2023/12/30 07:36:28;;;;;;;8.90;5.63;;;;;;;-14.31;76.42;101266.59;5041249;28;20046;-66
2023/12/30 07:38:59;;;;;;;9.57;6.55;;;;;;;-14.51;75.87;101237.91;5032460;28;20148;-67
2023/12/30 07:41:31;;;;;;;11.40;7.00;;;;;;;-14.48;75.58;101265.81;5042096;28;20070;-67
2023/12/30 07:44:02;;;;;;;5.93;4.22;;;;;;;-14.72;75.04;101260.91;5032199;28;20132;-66
2023/12/30 07:46:32;;;;;;;4.13;3.65;;;;;;;-14.90;75.55;101268.41;5042210;28;20079;-67
2023/12/30 07:49:02;;;;;;;7.03;4.47;;;;;;;-14.98;75.96;101271.72;5031631;28;20137;-66
2023/12/30 07:51:34;;;;;;;6.18;4.03;;;;;;;-15.08;76.66;101279.06;5039843;28;20056;-67
2023/12/30 07:54:04;;;;;;;19.27;9.85;;;;;;;-15.16;77.61;101274.91;5041767;28;20052;-67
2023/12/30 07:56:36;;;;;;;30.98;15.35;;;;;;;-15.44;77.92;101237.00;5035700;28;20742;-67
2023/12/30 07:59:07;;;;;;;12.95;8.07;;;;;;;-15.21;78.31;101281.94;5042480;28;20066;-66
2023/12/30 08:01:44;;;;;;;9.95;6.50;;;;;;;-15.21;78.60;101277.81;5031285;28;20041;-67
2023/12/30 08:04:15;;;;;;;7.20;4.88;;;;;;;-15.22;78.83;101278.56;5041448;28;20433;-67
2023/12/30 08:06:48;;;;;;;6.68;4.40;;;;;;;-15.26;79.01;101268.94;5030237;28;20431;-66
2023/12/30 08:09:19;;;;;;;5.63;3.88;;;;;;;-15.17;79.24;101283.13;5042132;28;20162;-66
2023/12/30 08:11:51;;;;;;;6.28;4.35;;;;;;;-15.81;78.99;101193.19;5029979;28;20143;-66
2023/12/30 08:14:31;;;;;;;4.45;3.50;;;;;;;-15.27;79.14;101282.22;5041073;28;20052;-66
2023/12/30 08:17:02;;;;;;;6.53;3.83;;;;;;;-15.37;79.04;101284.53;5040493;28;20159;-66
2023/12/30 08:19:33;;;;;;;10.38;5.00;;;;;;;-15.50;79.21;101281.47;5060705;28;20521;-67
2023/12/30 08:22:04;;;;;;;10.50;5.15;;;;;;;-15.80;79.52;101246.69;5043446;28;20051;-66
2023/12/30 08:24:34;;;;;;;29.38;9.57;;;;;;;-15.66;80.23;101279.91;5056394;28;20827;-66
2023/12/30 08:27:06;;;;;;;40.42;11.20;;;;;;;-15.65;80.55;101286.69;5060857;28;20389;-66
2023/12/30 08:29:36;;;;;;;88.53;23.27;;;;;;;-15.70;81.10;101280.38;5047364;28;20496;-66
2023/12/30 08:32:08;;;;;;;71.88;20.73;;;;;;;-15.60;81.11;101288.78;5060274;28;20059;-68
2023/12/30 08:34:39;;;;;;;37.78;12.50;;;;;;;-15.72;80.45;101299.34;5030404;28;20544;-68
2023/12/30 08:37:09;;;;;;;18.05;8.70;;;;;;;-15.83;80.52;101304.84;5040317;28;20049;-67
2023/12/30 08:39:40;;;;;;;9.65;5.28;;;;;;;-15.77;81.32;101305.50;5030195;28;20048;-67
2023/12/30 08:42:12;;;;;;;9.85;5.20;;;;;;;-15.72;81.86;101304.38;5040153;28;20076;-67
2023/12/30 08:44:44;;;;;;;6.82;4.95;;;;;;;-15.69;82.10;101299.63;5030156;28;20044;-66
2023/12/30 08:47:15;;;;;;;7.90;4.35;;;;;;;-15.66;82.15;101282.41;5040450;28;20729;-65
2023/12/30 08:49:45;;;;;;;6.70;4.55;;;;;;;-15.52;81.86;101302.97;5029534;28;20139;-66
2023/12/30 08:52:16;;;;;;;50.67;18.38;;;;;;;-15.49;81.36;101303.31;5039648;28;20059;-67
2023/12/30 08:54:46;;;;;;;29.52;12.23;;;;;;;-15.46;81.60;101326.16;5029318;28;20126;-66
2023/12/30 08:57:18;;;;;;;18.02;8.55;;;;;;;-15.52;81.23;101318.00;5039675;28;20127;-66
2023/12/30 08:59:49;;;;;;;6.68;4.90;;;;;;;-15.61;81.29;101317.06;5029655;28;20580;-66
2023/12/30 09:02:19;;;;;;;6.63;5.30;;;;;;;-15.70;81.23;101317.94;5039487;28;20048;-65
2023/12/30 09:04:49;;;;;;;6.30;5.10;;;;;;;-15.68;82.17;101320.53;5029687;28;20145;-65
2023/12/30 09:07:21;;;;;;;15.50;5.30;;;;;;;-15.68;81.81;101316.41;5039805;28;20127;-66
2023/12/30 09:09:51;;;;;;;4.85;4.28;;;;;;;-15.74;82.25;101315.84;5028770;28;20060;-65
2023/12/30 09:12:23;;;;;;;13.82;7.43;;;;;;;-15.76;83.33;101317.28;5039291;28;20056;-66
2023/12/30 09:14:54;;;;;;;29.50;12.13;;;;;;;-15.69;83.23;101313.81;5029076;28;20053;-66
2023/12/30 09:17:24;;;;;;;26.40;10.40;;;;;;;-15.54;83.50;101311.97;5038567;28;20044;-65
2023/12/30 09:19:56;;;;;;;18.25;9.43;;;;;;;-15.42;83.50;101310.72;5032476;28;20068;-65
2023/12/30 09:22:26;;;;;;;23.92;9.40;;;;;;;-15.37;83.13;101319.63;5056578;28;20160;-66
2023/12/30 09:24:57;;;;;;;18.55;9.35;;;;;;;-15.34;82.73;101319.91;5045965;28;20051;-63
2023/12/30 09:27:29;;;;;;;19.50;9.80;;;;;;;-15.38;82.22;101317.81;5059783;28;20526;-64
2023/12/30 09:29:59;;;;;;;14.90;7.82;;;;;;;-15.46;81.49;101318.66;5048592;28;20519;-64
2023/12/30 09:32:30;;;;;;;7.22;5.47;;;;;;;-15.50;81.75;101321.56;5056274;28;20063;-64
2023/12/30 09:35:02;;;;;;;41.08;16.58;;;;;;;-15.54;81.61;101316.97;5049234;28;20047;-64
2023/12/30 09:37:33;;;;;;;114.85;40.33;;;;;;;-15.70;81.27;101307.91;5059612;28;20048;-64
2023/12/30 09:40:03;;;;;;;32.28;14.57;;;;;;;-15.73;81.22;101310.06;5049189;28;20134;-65
2023/12/30 09:42:38;;;;;;;11.68;7.40;;;;;;;-15.74;81.77;101305.81;5055441;28;20753;-65
2023/12/30 09:45:09;;;;;;;7.20;4.95;;;;;;;-15.69;82.42;101303.78;5059330;28;20054;-65
2023/12/30 09:47:41;;;;;;;9.05;6.32;;;;;;;-15.63;82.51;101308.50;5045119;28;20114;-65
2023/12/30 09:50:12;;;;;;;8.80;5.15;;;;;;;-15.63;82.35;101308.50;5058509;28;20135;-65
2023/12/30 09:52:42;;;;;;;8.93;5.53;;;;;;;-15.65;82.30;101301.72;5047168;28;20549;-65
2023/12/30 09:55:13;;;;;;;8.15;5.13;;;;;;;-15.63;82.19;101311.00;5055473;28;20062;-66
2023/12/30 09:57:47;;;;;;;5.85;4.63;;;;;;;-15.63;82.41;101308.50;5048412;28;20145;-65
2023/12/30 10:00:20;;;;;;;6.70;4.68;;;;;;;-15.72;81.84;101309.38;5058987;28;20043;-66
2023/12/30 10:02:51;;;;;;;4.93;3.85;;;;;;;-15.76;81.77;101317.28;5045114;28;20113;-65
2023/12/30 10:05:21;;;;;;;7.65;4.90;;;;;;;-15.77;81.56;101318.03;5058965;28;20066;-65
2023/12/30 10:07:53;;;;;;;7.47;5.00;;;;;;;-15.66;81.81;101319.09;5048878;28;20051;-66
2023/12/30 10:10:37;;;;;;;7.15;4.40;;;;;;;-15.42;81.74;101328.28;5058950;28;20380;-66
2023/12/30 10:13:09;;;;;;;17.05;10.00;;;;;;;-15.55;80.31;101322.69;5048469;28;20044;-66
2023/12/30 10:15:42;;;;;;;21.40;10.00;;;;;;;-15.71;79.33;101336.19;5048974;28;21242;-65
2023/12/30 10:18:13;;;;;;;15.57;7.97;;;;;;;-15.85;78.44;101321.31;5060265;28;20143;-63
2023/12/30 10:20:46;;;;;;;15.68;7.95;;;;;;;-16.00;78.08;101324.72;5053339;28;20071;-64
2023/12/30 10:23:16;;;;;;;16.45;9.23;;;;;;;-16.20;77.68;101316.00;5062693;28;20051;-63
2023/12/30 10:25:48;;;;;;;23.67;11.10;;;;;;;-16.27;77.90;101318.59;5051025;28;20419;-64
2023/12/30 10:28:20;;;;;;;14.25;7.05;;;;;;;-16.40;77.72;101328.88;5062166;28;20048;-64
2023/12/30 10:31:02;;;;;;;10.57;6.00;;;;;;;-16.54;77.58;101337.44;5052396;28;20067;-64
2023/12/30 10:33:35;;;;;;;11.98;6.57;;;;;;;-16.65;77.31;101340.38;5063009;28;20063;-63
2023/12/30 10:36:08;;;;;;;21.73;9.07;;;;;;;-16.79;77.73;101333.03;5052366;28;20141;-63
2023/12/30 10:38:39;;;;;;;26.02;10.40;;;;;;;-16.71;77.87;101329.72;5052765;28;20052;-65
2023/12/30 10:41:09;;;;;;;27.10;10.95;;;;;;;-16.75;78.23;101340.09;5053786;28;20099;-62
2023/12/30 10:43:41;;;;;;;35.53;13.85;;;;;;;-16.69;78.52;101350.78;5032653;28;20060;-64
2023/12/30 10:46:13;;;;;;;33.03;12.85;;;;;;;-16.62;78.96;101348.22;5042652;28;20071;-63
2023/12/30 10:48:55;;;;;;;21.00;9.77;;;;;;;-16.62;79.36;101342.31;5032336;28;20541;-63
2023/12/30 10:51:28;;;;;;;24.48;10.55;;;;;;;-16.62;79.67;101343.22;5042728;28;20075;-64
2023/12/30 10:54:05;;;;;;;18.50;8.30;;;;;;;-16.38;80.38;101354.09;5031984;28;20597;-63
2023/12/30 10:56:40;;;;;;;9.18;5.45;;;;;;;-16.39;80.67;101342.31;5032721;28;20052;-64
2023/12/30 10:59:14;;;;;;;6.20;4.38;;;;;;;-16.31;80.31;101351.50;5049848;28;20132;-64
2023/12/30 11:01:45;;;;;;;8.48;4.80;;;;;;;-16.35;79.83;101366.91;5053061;28;20135;-64
2023/12/30 11:04:16;;;;;;;8.20;4.07;;;;;;;-16.47;79.25;101354.00;5040954;28;20064;-64
2023/12/30 11:06:53;;;;;;;6.10;4.70;;;;;;;-16.70;78.40;101354.00;5024685;28;20056;-64
2023/12/30 11:09:27;;;;;;;6.22;4.28;;;;;;;-16.86;78.23;101360.59;5032065;28;20098;-64
2023/12/30 11:12:02;;;;;;;5.97;4.05;;;;;;;-17.07;78.07;101352.53;5032546;28;20055;-64
2023/12/30 11:14:37;;;;;;;6.85;4.40;;;;;;;-17.05;78.42;101358.56;5042015;28;20044;-64
2023/12/30 11:17:07;;;;;;;5.75;4.13;;;;;;;-17.10;78.50;101357.16;5033263;28;20060;-64
2023/12/30 11:19:39;;;;;;;5.00;4.30;;;;;;;-17.32;78.33;101350.53;5033350;28;20056;-64
2023/12/30 11:22:09;;;;;;;7.60;5.90;;;;;;;-17.28;78.48;101363.53;5036850;28;20084;-65
2023/12/30 11:24:42;;;;;;;7.68;6.55;;;;;;;-17.40;79.05;101352.19;5028125;28;20155;-65
2023/12/30 11:27:13;;;;;;;7.97;5.53;;;;;;;-17.41;79.19;101361.28;5038303;28;20150;-65
2023/12/30 11:29:46;;;;;;;9.32;4.65;;;;;;;-17.38;79.54;101359.84;5028535;28;20092;-64
2023/12/30 11:32:19;;;;;;;6.45;4.65;;;;;;;-17.36;79.92;101363.41;5038382;28;20055;-64
2023/12/30 11:34:51;;;;;;;5.97;4.50;;;;;;;-17.31;80.44;101367.31;5029182;28;20105;-64
2023/12/30 11:37:23;;;;;;;5.05;4.47;;;;;;;-17.15;81.19;101365.78;5038670;28;20135;-64
2023/12/30 11:39:59;;;;;;;4.50;4.10;;;;;;;-16.98;81.94;101366.03;5028624;28;20041;-64